logo tempoitalia

Diretta Meteo Parana Aerodrome, Argentinalunedì 31 agosto ore 02:00

Mappa
Sereno 13 °C Molto Nuvoloso 24 Ore: T.min 11 T.max 22
Ponente Nord Km/h 3.7 Punto di rugiada: 11 °C Umidità: 87% Visibilità: 10 Km
Il sole sorge alle: 07:19 Il sole tramonta alle: 18:45
31 Agosto 2026 02:00 tempo osservato: Molto Nuvoloso Molto Nuvoloso 13 87 1013 vento: Nord N 3.7
31 Agosto 2026 01:00 tempo osservato: Sereno Sereno 13 87 1013 vento: Nord NE 7.4
31 Agosto 2026 00:00 tempo osservato: Sereno Sereno 12 93 1013 vento: Nord E 7.4
30 Agosto 2026 23:00 tempo osservato: Sereno Sereno 13 81 1013 vento: Nord N 3.7
30 Agosto 2026 22:00 tempo osservato: Sereno Sereno 14 76 1013 vento: Nord N 5.5
30 Agosto 2026 21:00 tempo osservato: Sereno Sereno 15 76 1012 vento: Nord E 9.3
30 Agosto 2026 20:00 tempo osservato: Sereno Sereno 17 72 1012 vento: Nord E 9.3
30 Agosto 2026 19:00 tempo osservato: Sereno Sereno 19 63 1011 vento: Nord E/NE 13
30 Agosto 2026 18:00 tempo osservato: Sereno Sereno 21 56 1011 vento: Nord E/NE 14.8
30 Agosto 2026 17:00 tempo osservato: Sereno Sereno 22 53 1011 vento: Nord E/NE 18.5
30 Agosto 2026 16:00 tempo osservato: Sereno Sereno 22 53 1012 vento: Nord E/NE 20.3
30 Agosto 2026 15:00 tempo osservato: Sereno Sereno 21 60 1012 vento: Nord NE 16.7
30 Agosto 2026 14:00 tempo osservato: Sereno Sereno 20 59 1013 vento: Nord E/NE 18.5
30 Agosto 2026 13:00 tempo osservato: Sereno Sereno 19 63 1013 vento: Nord E/NE 16.7
30 Agosto 2026 12:00 tempo osservato: Sereno Sereno 17 67 1015 vento: Nord E/NE 14.8
30 Agosto 2026 11:00 tempo osservato: Sereno Sereno 15 72 1015 vento: Nord E/NE 14.8
30 Agosto 2026 10:00 tempo osservato: Sereno Sereno 13 71 1015 vento: Nord E/NE 11.1
30 Agosto 2026 09:00 tempo osservato: Sereno Sereno 12 81 1015 vento: Nord E 9.3
30 Agosto 2026 08:00 tempo osservato: Sereno Sereno 12 87 1014 vento: Nord E 11.1
30 Agosto 2026 07:00 tempo osservato: Sereno Sereno 11 93 1014 vento: Nord E 7.4
30 Agosto 2026 06:00 tempo osservato: Sereno Sereno 12 87 1014 vento: Nord E 7.4
30 Agosto 2026 05:00 tempo osservato: Sereno Sereno 12 81 1014 vento: Nord NE 9.3
30 Agosto 2026 04:00 tempo osservato: Sereno Sereno 12 81 1015 vento: Nord N 3.7
30 Agosto 2026 03:00 tempo osservato: Sereno Sereno 12 81 1016 vento: Nord N 5.5